x

North Equatorial One- 470 Nm East Of Martinique (41040) Wave Buoy

12:50am - Wed 27th Jul 2016 All times are UTC.

  • Sig Wave height 3.9ft
  • Swell Direction
  • Peak Period 8s
  • Average Period 5s
  • Wind
    16mph, 18mph gusts
  • Sea Temp 83°f
  • Air Temp 82°f
  • Sea Pressure 1014.3mb

More Historic Weather Station data

Upgrade to MSW Pro to gain access to the past 30 days of data for over 8000 Wavebouys and Weather Stations around the globe.

Join Pro

Comparision Forecast

View Surf forecast
   
Wed 07/27 12:50am 4ft 8s 5s 16 18 mph 1014.3mb 83f 82f
Tue 07/26 11:50pm 4.5ft 8s 5s 16 18 mph 1013.9mb 83f 82f
10:50pm 4.5ft 7s 5s 16 18 mph 1013.3mb 83f 82f
9:50pm 4ft 7s 5s 16 18 mph 1012.9mb 83f 82f
8:50pm 4ft 8s 5s 13 16 mph 1012.6mb 83f 83f
7:50pm 4.5ft 8s 5s 13 16 mph 1012.2mb 83f 83f
6:50pm 4ft 8s 5s 13 16 mph 1012.3mb 83f 82f
5:50pm 4.5ft 8s 5s 11 16 mph 1012.5mb 83f 82f
4:50pm 4.5ft 8s 5s 13 18 mph 1013.1mb 83f 82f
3:50pm 4.5ft 8s 5s 16
mph
1013.7mb 83f 82f
2:50pm 4.5ft 8s 5s 16 18 mph 1014mb 83f 82f
1:50pm 5ft 8s 5s 16 18 mph 1014.2mb 83f 82f
12:50pm 4.5ft 8s 5s 16 20 mph 1014.3mb 83f 82f
11:50am 5ft 8s 5s 16 20 mph 1014.1mb 82f 82f
10:50am 5ft 8s 5s 18 20 mph 1014mb 82f 82f
9:50am 4.5ft 8s 5s 18 20 mph 1013.8mb 82f 82f
8:50am 4.5ft 8s 5s 16 18 mph 1013.5mb 82f 82f
7:50am 4.5ft 8s 5s 18 20 mph 1013.4mb 82f 82f
6:50am 4.5ft 8s 5s 18 22 mph 1013.2mb 82f 82f
5:50am 4.5ft 8s 5s 16 18 mph 1013.4mb 83f 82f
4:50am 5ft 8s 5s 16 18 mph 1013.8mb 83f 82f
3:50am 5ft 8s 5s 13 18 mph 1014.5mb 83f 82f
2:50am 5ft 8s 5s 16 18 mph 1014.7mb 82f 82f
1:50am 5ft 7s 5s 16 18 mph 1014.7mb 82f 82f
12:50am 5ft 7s 5s 16 18 mph 1014.3mb 83f 82f
Mon 07/25 11:50pm 5ft 8s 5s 16 18 mph 1013.7mb 83f 82f
10:50pm 5ft 7s 5s 16 20 mph 1013.3mb 83f 82f
9:50pm 4.5ft 7s 5s 18 20 mph 1012.9mb 83f 82f
8:50pm 5ft 8s 5s 16 18 mph 1012.4mb 83f 82f
7:50pm 4.5ft 7s 5s 11 16 mph 1012.4mb 83f 82f
6:50pm 4.5ft 7s 5s 13 16 mph 1012.6mb 83f 82f
5:50pm 4.5ft 7s 5s 13 16 mph 1012.7mb 83f 82f
4:50pm 4.5ft 8s 5s 13 16 mph 1013.1mb 83f 80f
3:50pm 4.5ft 8s 5s 13 16 mph 1013.5mb 83f 81f
2:50pm 4.5ft 7s 5s 16 18 mph 1013.9mb 83f 81f
1:50pm 4.5ft 7s 5s 18 22 mph 1014.2mb 83f 79f
12:50pm 4.5ft 8s 5s 16 18 mph 1014mb 83f 81f
11:50am 4ft 7s 5s 13 20 mph 1013.9mb 83f 81f
10:50am 4.5ft 7s 5s 13 16 mph 1013.4mb 83f 82f
9:50am 4ft 7s 5s 13 18 mph 1013.1mb 82f 81f
8:50am 4.5ft 8s 5s 13 16 mph 1012.8mb 83f 81f
7:50am 4.5ft 8s 5s 16 20 mph 1012.4mb 83f 81f
6:50am 4ft 8s 5s 16 20 mph 1012.4mb 83f 81f
5:50am 4.5ft 7s 5s 18 20 mph 1012.8mb 83f 81f
4:50am 4ft 8s 5s 18 20 mph 1013.3mb 83f 81f
3:50am 4.5ft 6s 5s 18 22 mph 1013.8mb 83f 82f
2:50am 4ft 7s 5s 16 18 mph 1014.3mb 83f 81f
1:50am 4ft 8s 5s 9 11 mph 1014.9mb 83f 80f
12:50am 4ft 7s 5s 18 22 mph 1014.6mb 83f 80f
Sun 07/24 11:50pm 3.5ft 8s 5s 13 16 mph 1014.5mb 83f 82f
10:50pm 4.5ft 7s 5s 13 16 mph 1014mb 83f 82f
9:50pm 3.5ft 8s 5s 13 18 mph 1013.5mb 83f 82f
8:50pm 4.5ft 6s 5s 13 18 mph 1013.3mb 83f 82f
7:50pm 4ft 6s 5s 11 13 mph 1013.1mb 83f 81f
6:50pm 4.5ft 8s 5s 16 18 mph 1013.2mb 83f 82f
5:50pm 4.5ft 6s 5s 16 18 mph 1013.3mb 83f 82f
4:50pm 4.5ft 7s 5s 16 18 mph 1013.7mb 83f 82f
3:50pm 4.5ft 6s 5s 16 20 mph 1013.8mb 83f 82f
2:50pm 4.5ft 7s 5s 16 18 mph 1014.3mb 83f 82f
1:50pm 4.5ft 6s 5s 18 20 mph 1014.5mb 83f 82f
12:50pm 4.5ft 8s 5s 16 20 mph 1014.9mb 83f 82f
11:50am 4.5ft 5s 5s 18 20 mph 1014.6mb 82f 82f
10:50am 4.5ft 8s 5s 18 20 mph 1014.5mb 82f 81f
9:50am 4.5ft 6s 5s 16 18 mph 1014.2mb 82f 81f
8:50am 4.5ft 7s 5s 18 22 mph 1013.9mb 82f 81f
7:50am 4.5ft 6s 5s 18 20 mph 1013.7mb 82f 81f
6:50am 4.5ft 8s 5s 18 22 mph 1013.7mb 82f 81f
5:50am 4.5ft 6s 5s 16 20 mph 1013.8mb 82f 81f
3:50am 4.5ft 6s 5s 16 18 mph 1015.1mb 82f 81f
2:50am 4.5ft 7s 5s 16 20 mph 1015.5mb 82f 82f
1:50am 4ft 7s 5s 16 18 mph 1015.7mb 83f 82f
12:50am 4ft 8s 5s 16 18 mph 1015.5mb 83f 82f
Sat 07/23 11:50pm 4.5ft 8s 5s 16 18 mph 1014.9mb 83f 82f
10:50pm 4ft 6s 5s 16 18 mph 1014.4mb 83f 82f
9:50pm 4.5ft 8s 5s 16 18 mph 1013.9mb 83f 82f
8:50pm 4.5ft 9s 5s 16 18 mph 1013.5mb 83f 82f
7:50pm 4.5ft 8s 5s 16 18 mph 1013.4mb 83f 82f
6:50pm 4.5ft 7s 5s 13 16 mph 1013.6mb 83f 82f
5:50pm 4.5ft 6s 5s 16 18 mph 1013.9mb 83f 82f
4:50pm 4.5ft 6s 5s 16 18 mph 1014.2mb 83f 82f
3:50pm 4.5ft 7s 5s 13 18 mph 1014.5mb 83f 82f
2:50pm 4.5ft 8s 5s 16 20 mph 1014.6mb 83f 81f
1:50pm 4.5ft 8s 5s 16 18 mph 1014.7mb 83f 82f
12:50pm 4.5ft 8s 5s 16 20 mph 1014.7mb 83f 81f
11:50am 4ft 7s 5s 16 18 mph 1014.2mb 83f 81f
10:50am 4.5ft 8s 5s 16 18 mph 1013.8mb 82f 81f
9:50am 4ft 8s 5s 16 18 mph 1013.5mb 82f 80f
8:50am 4ft 8s 5s 13 16 mph 1013.4mb 82f 80f
7:50am 4.5ft 8s 5s 13 18 mph 1013.1mb 82f 81f
6:50am 4ft 8s 5s 7 9 mph 1013.5mb 82f 79f
5:50am 4ft 8s 5s 13 22 mph 1013.7mb 82f 80f
4:50am 4ft 8s 5s 13 18 mph 1014.4mb 82f 81f
3:50am 4ft 8s 5s 13 16 mph 1014.9mb 82f 81f
2:50am 3.5ft 8s 5s 16 18 mph 1015.4mb 83f 81f